• Join FlightAware (Why Join?)
  • Login
  • US Flag 
02:08PM EDT


 

Airport Tracker/Info


-or-


 

Live Flight TrackerFlight Track Log ✈ SWR1831 ✈ 16-Aug-2013 ✈ LGAV / ATH - LSZH / ZRH

Flight Track Log - Related Links

Times and Time Zones

All times are in EDT time to prevent confusion due to time zone crossing. See the SWR1831 flight status page for this flight to view local times or setup timezone preferences in your user account.

Time Position Orientation Groundspeed Altitude Reporting Facility
EDT Latitude Longitude Course Direction KTS MPH feet Rate Location/Type
07:19AM 38.1320 24.0860 314° West 278 320 7,200  Level FlightAware
07:19AM 38.1350 24.0800 302° West 280 322 7,300 1,380 Climbing FlightAware
07:20AM 38.1390 24.0690 295° West 288 331 7,500 1,980 Climbing FlightAware
07:20AM 38.1410 24.0600 286° West 293 337 7,700 2,100 Climbing FlightAware
07:20AM 38.1420 24.0360 273° West 295 339 8,200 2,100 Climbing FlightAware
07:20AM 38.1430 23.9850 271° West 299 344 9,300 1,980 Climbing FlightAware
07:21AM 38.1440 23.9460 272° West 306 352 9,900 1,380 Climbing FlightAware
07:21AM 38.1460 23.8840 272° West 327 376 10,600 1,020 Climbing FlightAware
07:22AM 38.1490 23.8130 273° West 356 410 11,100 840 Climbing FlightAware
07:22AM 38.1520 23.7480 273° West 374 430 11,600 1,200 Climbing FlightAware
07:23AM 38.1540 23.6820 272° West 385 443 12,400 1,860 Climbing FlightAware
07:24AM 38.1460 23.5790 264° West 392 451 13,800 1,980 Climbing FlightAware
07:24AM 38.1380 23.4960 263° West 394 453 15,000 1,800 Climbing FlightAware
07:25AM 38.1310 23.4170 264° West 400 460 16,000 1,800 Climbing FlightAware
07:25AM 38.1230 23.3290 263° West 405 466 17,100 1,620 Climbing FlightAware
07:26AM 38.1160 23.2570 263° West 406 467 17,900 1,440 Climbing FlightAware
07:27AM 38.1080 23.1700 263° West 415 478 18,800 1,560 Climbing FlightAware
07:27AM 38.0990 23.0720 263° West 418 481 19,800 1,500 Climbing FlightAware
07:28AM 38.1070 23.0170 280° West 426 490 20,400 1,440 Climbing FlightAware
07:28AM 38.1220 22.9860 302° West 431 496 20,700 1,140 Climbing FlightAware
07:28AM 38.1700 22.9250 315° West 441 507 21,300 1,260 Climbing FlightAware
07:29AM 38.2260 22.8560 316° Northwest 442 509 22,200 1,260 Climbing FlightAware
07:30AM 38.2870 22.7790 315° West 450 518 23,000 1,020 Climbing FlightAware
07:30AM 38.3360 22.7190 316° Northwest 455 524 23,500 1,140 Climbing FlightAware
07:31AM 38.3890 22.6520 315° West 454 522 24,300 1,080 Climbing FlightAware
07:31AM 38.4460 22.5810 316° Northwest 461 531 24,900 900 Climbing FlightAware
07:32AM 38.4940 22.5200 315° West 465 535 25,400 1,080 Climbing FlightAware
07:33AM 38.5440 22.4570 315° West 463 533 26,100 900 Climbing FlightAware
07:33AM 38.6120 22.3720 316° Northwest 469 540 26,600 720 Climbing FlightAware
07:34AM 38.6680 22.3010 315° West 473 544 27,100 900 Climbing FlightAware
07:34AM 38.7190 22.2350 315° West 472 543 27,700 780 Climbing FlightAware
07:35AM 38.7750 22.1650 316° Northwest 478 550 28,000 840 Climbing FlightAware
07:36AM 38.8280 22.0980 315° West 475 547 28,700 960 Climbing FlightAware
07:36AM 38.8910 22.0170 315° West 478 550 29,200 1,020 Climbing FlightAware
07:37AM 38.9480 21.9440 315° West 469 540 30,000 1,380 Climbing FlightAware
07:37AM 38.9960 21.8810 314° West 463 533 30,800 1,080 Climbing FlightAware
07:38AM 39.0560 21.8050 315° West 461 531 31,300 780 Climbing FlightAware
07:39AM 39.1070 21.7390 315° West 460 529 31,800 780 Climbing FlightAware
07:39AM 39.1670 21.6610 315° West 460 529 32,300 540 Climbing FlightAware
07:40AM 39.2170 21.5970 315° West 465 535 32,500 660 Climbing FlightAware
07:40AM 39.2730 21.5240 315° West 461 531 33,100 600 Climbing FlightAware
07:41AM 39.3210 21.4610 315° West 467 537 33,200 600 Climbing FlightAware
07:42AM 39.3770 21.3880 315° West 464 534 33,800 660 Climbing FlightAware
07:42AM 39.4260 21.3240 315° West 464 534 34,000 120 Climbing FlightAware
07:43AM 39.4810 21.2530 315° West 458 527 34,000  Level FlightAware
07:43AM 39.5320 21.1860 315° West 455 524 34,000  Level FlightAware
07:44AM 39.5870 21.1130 314° West 457 526 34,000  Level FlightAware
07:44AM 39.6380 21.0460 315° West 456 525 34,000  Level FlightAware
07:45AM 39.6910 20.9760 315° West 454 522 34,000  Level FlightAware
07:46AM 39.7430 20.9060 314° West 454 522 34,000  Level FlightAware
07:46AM 39.7910 20.8430 315° West 453 521 34,000  Level FlightAware
07:47AM 39.8440 20.7720 314° West 453 521 34,000  Level FlightAware
07:47AM 39.8910 20.7100 315° West 453 521 34,000  Level FlightAware
07:48AM 39.9460 20.6360 314° West 454 522 34,000  Level FlightAware
07:49AM 40.0020 20.5740 320° Northwest 455 524 34,000  Level FlightAware
07:49AM 40.0620 20.5170 324° Northwest 456 525 34,000  Level FlightAware
07:50AM 40.1180 20.4630 324° Northwest 456 525 34,000  Level FlightAware
07:50AM 40.1670 20.4160 324° Northwest 456 525 34,000  Level FlightAware
07:51AM 40.2220 20.3630 324° Northwest 456 525 34,000  Level FlightAware
07:51AM 40.2900 20.2970 323° Northwest 455 524 34,000  Level FlightAware
07:52AM 40.3470 20.2420 324° Northwest 454 522 34,000  Level FlightAware
07:53AM 40.4110 20.1800 324° Northwest 453 521 34,000  Level FlightAware
07:53AM 40.4650 20.1270 323° Northwest 451 519 34,000  Level FlightAware
07:54AM 40.5240 20.0700 324° Northwest 451 519 34,000  Level FlightAware
07:54AM 40.5860 20.0090 323° Northwest 452 520 34,000  Level FlightAware
07:55AM 40.6440 19.9530 324° Northwest 452 520 34,000  Level FlightAware
07:55AM 40.7000 19.8970 323° Northwest 453 521 34,000  Level FlightAware
07:56AM 40.7600 19.8380 323° Northwest 452 520 34,000  Level FlightAware
07:57AM 40.8200 19.7790 323° Northwest 452 520 34,000  Level FlightAware
07:57AM 40.8730 19.7270 323° Northwest 451 519 34,000  Level FlightAware
07:58AM 40.9320 19.6690 323° Northwest 450 518 34,000  Level FlightAware
07:58AM 40.9920 19.6100 323° Northwest 450 518 34,000  Level FlightAware
07:59AM 41.0540 19.5490 323° Northwest 450 518 34,000  Level FlightAware
08:00AM 41.1070 19.4960 323° Northwest 450 518 34,000  Level FlightAware
08:00AM 41.1670 19.4360 323° Northwest 449 517 34,000  Level FlightAware
08:01AM 41.2230 19.3800 323° Northwest 447 514 34,000  Level FlightAware
08:01AM 41.2800 19.3220 323° Northwest 446 513 34,000  Level FlightAware
08:02AM 41.3510 19.2510 323° Northwest 446 513 34,000  Level FlightAware
08:03AM 41.4150 19.1860 323° Northwest 446 513 34,000  Level FlightAware
08:03AM 41.4720 19.1280 323° Northwest 447 514 34,000  Level FlightAware
08:04AM 41.5220 19.0740 321° Northwest 447 514 34,000  Level FlightAware
08:04AM 41.5810 19.0090 321° Northwest 448 516 34,000 60 Level FlightAware
08:05AM 41.6300 18.9560 321° Northwest 447 514 34,100  Climbing FlightAware
08:06AM 41.6950 18.8830 320° Northwest 446 513 34,000 -120 Descending FlightAware
08:06AM 41.7440 18.8280 320° Northwest 445 512 34,000  Level FlightAware
08:07AM 41.8000 18.7670 321° Northwest 445 512 34,000  Level FlightAware
08:07AM 41.8520 18.7080 320° Northwest 445 512 34,000  Level FlightAware
08:08AM 41.9210 18.6280 319° Northwest 446 513 34,000  Level FlightAware
08:09AM 41.9740 18.5470 311° West 446 513 34,000  Level FlightAware
08:09AM 42.0130 18.4840 310° West 443 510 34,000  Level FlightAware
08:10AM 42.0630 18.4040 310° West 441 507 34,000  Level FlightAware
08:10AM 42.1090 18.3310 310° West 439 505 34,000  Level FlightAware
08:11AM 42.1430 18.2750 309° West 438 504 34,000  Level FlightAware
08:11AM 42.1990 18.1860 310° West 438 504 34,000  Level FlightAware
08:12AM 42.2470 18.1070 309° West 437 503 34,000  Level FlightAware
08:13AM 42.2930 18.0320 310° West 438 504 34,000  Level FlightAware
08:13AM 42.3340 17.9660 310° West 439 505 34,000  Level FlightAware
08:14AM 42.3820 17.8880 310° West 440 506 34,000  Level FlightAware
08:14AM 42.4270 17.8140 309° West 441 507 34,000  Level FlightAware
08:15AM 42.4730 17.7380 309° West 442 509 34,000  Level FlightAware
08:16AM 42.5170 17.6650 309° West 443 510 34,000  Level FlightAware
08:16AM 42.5650 17.5870 310° West 444 511 34,000 240 Level FlightAware
08:17AM 42.6120 17.5090 309° West 443 510 34,300 480 Climbing FlightAware
08:17AM 42.6550 17.4360 309° West 444 511 34,600 540 Climbing FlightAware
08:18AM 42.6950 17.3710 310° West 445 512 34,900 600 Climbing FlightAware
08:18AM 42.7510 17.2890 313° West 443 510 35,300 600 Climbing FlightAware
08:19AM 42.8000 17.2170 313° West 444 511 35,700 540 Climbing FlightAware
08:20AM 42.8510 17.1420 313° West 442 509 36,000 240 Climbing FlightAware
08:20AM 42.8950 17.0760 312° West 442 509 36,000  Level FlightAware
08:21AM 42.9460 17.0020 313° West 440 506 36,000  Level FlightAware
08:21AM 42.9880 16.9380 312° West 438 504 36,000  Level FlightAware
08:22AM 43.0400 16.8600 312° West 439 505 36,000  Level FlightAware
08:23AM 43.0880 16.7890 313° West 439 505 36,000  Level FlightAware
08:23AM 43.1330 16.7210 312° West 439 505 36,000  Level FlightAware
08:24AM 43.1820 16.6470 312° West 438 504 36,000  Level FlightAware
08:24AM 43.2340 16.5690 312° West 437 503 36,000  Level FlightAware
08:25AM 43.2780 16.5030 312° West 436 502 36,000  Level FlightAware
08:25AM 43.3260 16.4300 312° West 436 502 36,000  Level FlightAware
08:26AM 43.3760 16.3540 312° West 435 501 36,000  Level FlightAware
08:27AM 43.4190 16.2890 312° West 436 502 36,000  Level FlightAware
08:27AM 43.4680 16.2130 312° West 436 502 36,000  Level FlightAware
08:28AM 43.5090 16.1510 312° West 436 502 36,000  Level FlightAware
08:28AM 43.5590 16.0740 312° West 435 501 36,000  Level FlightAware
08:29AM 43.6170 15.9850 312° West 435 501 36,000  Level FlightAware
08:30AM 43.6630 15.9150 312° West 436 502 36,000  Level FlightAware
08:30AM 43.7090 15.8440 312° West 435 501 36,000  Level FlightAware
08:31AM 43.7630 15.7600 312° West 434 499 36,000  Level FlightAware
08:31AM 43.8000 15.7020 311° West 434 499 36,000  Level FlightAware
08:32AM 43.8530 15.6200 312° West 433 498 36,000  Level FlightAware
08:33AM 43.9010 15.5450 312° West 432 497 36,000  Level FlightAware
08:33AM 43.9390 15.4860 312° West 427 491 36,000  Level FlightAware
08:34AM 43.9860 15.4110 311° West 427 491 36,000  Level FlightAware
08:34AM 44.0390 15.3280 312° West 427 491 36,000  Level FlightAware
08:35AM 44.0730 15.2750 312° West 427 491 36,000  Level FlightAware
08:35AM 44.1190 15.2010 311° West 427 491 36,000  Level FlightAware
08:36AM 44.1580 15.1390 311° West 427 491 36,000  Level FlightAware
08:37AM 44.2120 15.0550 312° West 427 491 36,000  Level FlightAware
08:37AM 44.2570 14.9820 311° West 427 491 36,000  Level FlightAware
08:38AM 44.3030 14.9090 311° West 427 491 36,000  Level FlightAware
08:38AM 44.3430 14.8440 311° West 426 490 36,000  Level FlightAware
08:39AM 44.3920 14.7660 311° West 426 490 36,000  Level FlightAware
08:39AM 44.4390 14.6900 311° West 425 489 36,000  Level FlightAware
08:40AM 44.4900 14.6090 311° West 426 490 36,000  Level FlightAware
08:41AM 44.5410 14.5260 311° West 427 491 36,000  Level FlightAware
08:41AM 44.5890 14.4560 314° West 427 491 36,000  Level FlightAware
08:42AM 44.6400 14.3870 316° Northwest 433 498 36,000  Level FlightAware
08:42AM 44.6870 14.3220 315° West 434 499 36,000  Level FlightAware
08:43AM 44.7390 14.2510 316° Northwest 434 499 36,000  Level FlightAware
08:44AM 44.7960 14.1720 315° West 434 499 36,000  Level FlightAware
08:44AM 44.8370 14.1150 315° West 434 499 36,000  Level FlightAware
08:45AM 44.8890 14.0430 316° Northwest 434 499 36,000  Level FlightAware
08:45AM 44.9470 13.9630 316° Northwest 434 499 36,000  Level FlightAware
08:46AM 44.9890 13.9040 315° West 434 499 36,000  Level FlightAware
08:47AM 45.0380 13.8360 316° Northwest 434 499 36,000  Level FlightAware
08:47AM 45.0970 13.7550 316° Northwest 429 494 36,000  Level FlightAware
08:48AM 45.1400 13.6950 315° West 429 494 36,000  Level FlightAware
08:48AM 45.1880 13.6290 316° Northwest 429 494 36,000  Level FlightAware
08:49AM 45.2420 13.5540 316° Northwest 429 494 36,000  Level FlightAware
08:50AM 45.2980 13.4770 316° Northwest 430 495 36,000  Level FlightAware
08:50AM 45.3420 13.4170 316° Northwest 430 495 36,000  Level FlightAware
08:51AM 45.3930 13.3280 309° West 432 497 36,000  Level FlightAware
08:51AM 45.4210 13.2520 298° West 436 502 36,000  Level FlightAware
08:52AM 45.4520 13.1640 297° West 436 502 36,000  Level FlightAware
08:52AM 45.4830 13.0740 296° West 436 502 36,000  Level FlightAware
08:53AM 45.5160 12.9800 297° West 436 502 36,000  Level FlightAware
08:54AM 45.5460 12.8940 297° West 436 502 36,000  Level FlightAware
08:54AM 45.5830 12.7870 296° West 435 501 36,000  Level FlightAware
08:55AM 45.6130 12.6980 296° West 436 502 36,000  Level FlightAware
08:55AM 45.6400 12.6200 296° West 436 502 36,000  Level FlightAware
08:56AM 45.6710 12.5300 296° West 432 497 36,000  Level FlightAware
08:56AM 45.7010 12.4420 296° West 433 498 36,000  Level FlightAware
08:57AM 45.7350 12.3400 296° West 434 499 36,000  Level FlightAware
08:58AM 45.7670 12.2440 296° West 434 499 36,000  Level FlightAware
08:58AM 45.7960 12.1590 296° West 438 504 36,000  Level FlightAware
08:59AM 45.8260 12.0690 296° West 438 504 36,000  Level FlightAware
08:59AM 45.8590 11.9720 296° West 438 504 36,000  Level FlightAware
09:00AM 45.8900 11.8780 295° West 438 504 36,000  Level FlightAware
09:01AM 45.9210 11.7840 295° West 439 505 36,000 -480 Level FlightAware
09:01AM 45.9500 11.6970 296° West 434 499 35,500 -960 Descending FlightAware
09:02AM 45.9810 11.6020 295° West 436 502 34,900 -960 Descending FlightAware
09:02AM 46.0080 11.5190 295° West 437 503 34,400 -1,020 Descending FlightAware
09:03AM 46.0390 11.4280 296° West 432 497 33,800 -960 Descending FlightAware
09:03AM 46.0690 11.3340 295° West 433 498 33,300 -660 Descending FlightAware
09:04AM 46.1010 11.2360 295° West 431 496 33,000 -300 Descending FlightAware
09:05AM 46.1290 11.1480 295° West 432 497 33,000  Level FlightAware
09:05AM 46.1580 11.0600 295° West 432 497 33,000  Level FlightAware
09:06AM 46.1880 10.9640 294° West 431 496 33,000  Level FlightAware
09:06AM 46.2160 10.8800 296° West 432 497 33,000  Level FlightAware
09:07AM 46.2450 10.7890 295° West 432 497 33,000  Level FlightAware
09:08AM 46.2770 10.6870 294° West 433 498 33,000  Level FlightAware
09:08AM 46.3040 10.6000 294° West 434 499 33,000 -360 Level FlightAware
09:09AM 46.3350 10.5030 295° West 433 498 32,600 -660 Descending FlightAware
09:09AM 46.3610 10.4210 295° West 438 504 32,300 -540 Descending FlightAware
09:10AM 46.3950 10.3110 294° West 440 506 32,000 -300 Descending FlightAware
09:10AM 46.4230 10.2230 295° West 443 510 32,000  Level FlightAware
09:11AM 46.4540 10.1240 294° West 441 507 32,000  Level FlightAware
09:12AM 46.4630 10.0940 294° West 442 509 32,000  Level FlightAware
09:12AM 46.5150 9.9470 297° West 442 509 32,000  Level FlightAware
09:13AM 46.5490 9.8590 299° West 442 509 32,000  Level FlightAware
09:13AM 46.5830 9.7690 299° West 442 509 32,000  Level FlightAware
09:14AM 46.6160 9.6820 299° West 440 506 32,000 -300 Level FlightAware
09:15AM 46.6520 9.5850 298° West 439 505 31,700 -900 Descending FlightAware
09:15AM 46.6840 9.5010 299° West 437 503 31,000 -1,260 Descending FlightAware
09:16AM 46.7170 9.4110 298° West 427 491 30,300 -1,200 Descending FlightAware
09:16AM 46.7530 9.3150 299° West 421 484 29,600 -1,200 Descending FlightAware
09:17AM 46.7840 9.2310 298° West 421 484 28,900 -1,140 Descending FlightAware
09:17AM 46.8160 9.1430 298° West 437 503 28,300 -1,260 Descending FlightAware
09:18AM 46.8540 9.0410 299° West 459 528 27,400 -1,440 Descending FlightAware
09:19AM 46.8910 8.9410 298° West 451 519 26,600 -1,920 Descending FlightAware
09:19AM 46.9210 8.8600 298° West 442 509 25,300 -2,700 Descending FlightAware
09:20AM 46.9670 8.7720 307° West 438 504 23,600 -2,820 Descending FlightAware
09:20AM 46.9720 8.7670 326° Northwest 440 506 23,400 -3,000 Descending FlightAware
09:20AM 47.0020 8.7500 339° North 444 511 22,600 -2,460 Descending FlightAware
09:21AM 47.0730 8.7410 355° North 437 503 21,200 -2,700 Descending FlightAware
09:21AM 47.1370 8.7330 355° North 433 498 19,600 -2,880 Descending FlightAware
09:22AM 47.2090 8.7220 354° North 420 483 18,100 -2,640 Descending FlightAware
09:22AM 47.2630 8.6960 342° North 408 470 16,800 -2,520 Descending FlightAware
09:23AM 47.3150 8.6170 314° West 395 455 15,200 -2,880 Descending FlightAware
09:24AM 47.3640 8.5370 312° West 397 457 13,000 -2,880 Descending FlightAware
09:24AM 47.4000 8.4810 314° West 360 414 11,900 -2,640 Descending FlightAware
09:25AM 47.4380 8.4220 314° West 341 392 10,200 -2,100 Descending FlightAware
09:25AM 47.4590 8.3880 312° West 307 353 10,000 -1,200 Descending FlightAware
09:26AM 47.4860 8.3450 313° West 280 322 9,200 -1,560 Descending FlightAware
09:26AM 47.5030 8.3180 313° West 266 306 8,700 -1,800 Descending FlightAware
09:26AM 47.5200 8.2930 315° West 263 303 8,000 -2,040 Descending FlightAware
09:26AM 47.5280 8.2820 317° Northwest 265 305 7,700 -2,040 Descending FlightAware
09:27AM 47.5360 8.2770 337° Northwest 265 305 7,500 -1,380 Descending FlightAware
09:27AM 47.5690 8.2740 356° North 265 305 6,900 -960 Descending FlightAware
09:27AM 47.5940 8.2760 North 257 296 6,700 -780 Descending FlightAware
09:28AM 47.6270 8.2900 16° North 224 258 6,200 -1,080 Descending FlightAware
09:28AM 47.6310 8.3000 59° Northeast 218 251 6,000 -1,800 Descending FlightAware
09:28AM 47.6330 8.3040 53° Northeast 219 252 5,900 -2,700 Descending FlightAware
09:28AM 47.6330 8.3120 90° East 214 246 5,600 -2,040 Descending FlightAware
09:29AM 47.6210 8.3440 119° Southeast 198 228 4,900 -1,500 Descending FlightAware
09:29AM 47.6060 8.3660 135° Southeast 203 234 4,500 -960 Descending FlightAware
09:29AM 47.5890 8.3890 138° Southeast 197 227 4,100 -960 Descending FlightAware
09:30AM 47.5740 8.4100 137° Southeast 196 226 3,700 -1,140 Descending FlightAware
09:30AM 47.5600 8.4290 138° Southeast 184 212 3,300 -900 Descending FlightAware
09:30AM 47.5520 8.4410 135° Southeast 181 208 3,100 -540 Descending FlightAware
09:31AM 47.5260 8.4770 137° Southeast 181 208 2,800 -480 Descending FlightAware
09:34AM 47.4647 8.5492 141° Southeast  Level Estimated
09:35AM 47.4647 8.5492 315° West  Level Estimated
09:36AM 47.4647 8.5492 315° West  Level Estimated
09:37AM 47.4647 8.5492 315° West  Level Estimated
09:38AM 47.4647 8.5492 315° West  Level Estimated